Time;durP1;ratioP1;P1;durP2;ratioP2;P2;SDS_P1;SDS_P2;PMS_P1;PMS_P2;Temp;Humidity;BMP_temperature;BMP_pressure;BME280_temperature;BME280_humidity;BME280_pressure;Samples;Min_cycle;Max_cycle;Signal;HPM_P1;HPM_P2
2021/07/27 00:01:09;;;;;;;3.15;1.73;;;17.80;90.60;;;;;;4968304;28;20467;-69
2021/07/27 00:03:36;;;;;;;4.03;1.60;;;17.80;90.50;;;;;;4964708;28;20077;-69
2021/07/27 00:06:03;;;;;;;3.47;1.45;;;17.80;90.60;;;;;;4970972;28;20027;-67
2021/07/27 00:08:29;;;;;;;2.13;1.58;;;17.80;90.50;;;;;;4969577;28;20395;-69
2021/07/27 00:10:55;;;;;;;2.92;1.40;;;17.80;90.50;;;;;;4971592;28;20027;-73
2021/07/27 00:13:20;;;;;;;2.80;1.60;;;17.70;90.50;;;;;;4970511;28;20027;-72
2021/07/27 00:15:46;;;;;;;1.50;1.40;;;17.70;90.60;;;;;;4968297;28;20027;-69
2021/07/27 00:18:12;;;;;;;2.90;1.80;;;17.70;90.60;;;;;;4968256;28;20027;-69
2021/07/27 00:20:37;;;;;;;2.50;1.52;;;17.70;90.60;;;;;;4969390;28;20108;-72
2021/07/27 00:23:03;;;;;;;5.80;1.85;;;17.70;90.60;;;;;;4969599;28;20086;-71
2021/07/27 00:25:29;;;;;;;4.63;1.70;;;17.70;90.50;;;;;;4969563;28;20035;-68
2021/07/27 00:27:54;;;;;;;1.85;1.20;;;17.70;90.60;;;;;;4969544;28;20102;-69
2021/07/27 00:30:20;;;;;;;3.17;1.50;;;17.70;90.60;;;;;;4971333;28;20030;-69
2021/07/27 00:32:45;;;;;;;3.72;1.60;;;17.60;90.60;;;;;;4975733;28;20023;-70
2021/07/27 00:35:12;;;;;;;3.58;1.92;;;17.60;90.60;;;;;;4969887;28;20515;-69
2021/07/27 00:37:43;;;;;;;2.00;1.73;;;17.60;90.60;;;;;;4966551;28;20548;-69
2021/07/27 00:40:09;;;;;;;2.00;1.60;;;17.60;90.60;;;;;;4969892;28;20035;-69
2021/07/27 00:42:45;;;;;;;1.67;1.58;;;17.60;90.60;;;;;;4970789;28;20030;-69
2021/07/27 00:45:12;;;;;;;3.03;1.80;;;17.60;90.70;;;;;;4962254;28;20031;-71
2021/07/27 00:47:37;;;;;;;3.28;1.77;;;17.60;90.70;;;;;;4955833;28;20033;-68
2021/07/27 00:50:03;;;;;;;2.70;1.60;;;17.50;90.70;;;;;;4964951;28;20454;-69
2021/07/27 00:52:29;;;;;;;2.10;1.58;;;17.60;90.70;;;;;;4968597;28;20078;-69
2021/07/27 00:54:55;;;;;;;2.60;1.90;;;17.60;90.70;;;;;;4967341;28;20038;-69
2021/07/27 00:57:23;;;;;;;2.63;1.83;;;17.50;90.70;;;;;;4971609;28;20015;-69
2021/07/27 00:59:49;;;;;;;2.80;1.90;;;17.50;90.80;;;;;;4970693;28;20078;-69
2021/07/27 01:02:14;;;;;;;2.95;1.95;;;17.50;90.80;;;;;;4965237;28;20739;-71
2021/07/27 01:04:40;;;;;;;5.13;2.17;;;17.40;90.70;;;;;;4968767;28;20082;-69
2021/07/27 01:07:07;;;;;;;4.75;2.05;;;17.40;90.70;;;;;;4969558;28;20038;-69
2021/07/27 01:09:32;;;;;;;5.22;2.35;;;17.30;90.70;;;;;;4961628;28;20127;-70
2021/07/27 01:11:59;;;;;;;7.63;2.22;;;17.30;90.80;;;;;;4968007;28;20106;-70
2021/07/27 01:14:25;;;;;;;6.55;2.20;;;17.30;90.90;;;;;;4969848;28;20034;-70
2021/07/27 01:16:50;;;;;;;3.60;2.08;;;17.30;91.00;;;;;;4965503;28;20391;-69
2021/07/27 01:43:20;;;;;;;6.38;2.50;;;17.20;91.10;;;;;;5012001;28;20040;-67
2021/07/27 01:45:46;;;;;;;3.55;2.50;;;17.20;91.10;;;;;;5003796;28;20018;-69
2021/07/27 01:48:12;;;;;;;5.53;2.47;;;17.20;91.20;;;;;;4999900;28;20025;-68
2021/07/27 01:50:40;;;;;;;8.00;2.50;;;17.20;91.20;;;;;;5013207;28;20106;-68
2021/07/27 01:53:06;;;;;;;3.45;2.95;;;17.20;91.20;;;;;;4994809;28;20109;-66
2021/07/27 01:55:34;;;;;;;5.43;2.63;;;17.10;91.20;;;;;;4994737;28;20471;-70
2021/07/27 01:58:04;;;;;;;6.15;2.45;;;17.10;91.20;;;;;;5012566;28;20083;-68
2021/07/27 02:00:32;;;;;;;5.50;2.50;;;17.10;91.20;;;;;;5012213;28;20022;-70
2021/07/27 02:02:57;;;;;;;7.07;2.45;;;17.00;91.20;;;;;;5009434;28;20362;-69
2021/07/27 02:05:23;;;;;;;5.47;2.30;;;17.00;91.10;;;;;;4994610;28;20041;-69
2021/07/27 02:07:55;;;;;;;5.70;2.53;;;16.90;91.20;;;;;;5006391;28;20034;-69
2021/07/27 02:10:22;;;;;;;7.70;2.90;;;16.90;91.30;;;;;;5007535;28;20125;-69
2021/07/27 02:12:54;;;;;;;10.38;2.25;;;16.80;91.20;;;;;;4987583;28;20164;-69
2021/07/27 02:15:21;;;;;;;7.32;2.55;;;16.90;91.20;;;;;;5009113;28;20042;-69
2021/07/27 02:17:47;;;;;;;6.90;2.95;;;16.80;91.10;;;;;;5003481;28;20022;-67
2021/07/27 02:20:14;;;;;;;6.43;2.38;;;16.80;91.10;;;;;;5011855;28;20022;-70
2021/07/27 02:22:40;;;;;;;10.63;2.63;;;16.80;91.20;;;;;;5013439;28;20026;-69
2021/07/27 02:25:07;;;;;;;6.70;2.28;;;16.70;91.20;;;;;;5010629;28;20029;-70
2021/07/27 02:27:33;;;;;;;10.13;2.60;;;16.80;91.30;;;;;;5011221;28;20160;-69
2021/07/27 02:30:00;;;;;;;9.23;2.45;;;16.80;91.20;;;;;;5011444;28;20533;-68
2021/07/27 02:32:25;;;;;;;9.52;2.33;;;16.70;91.20;;;;;;5010070;28;20032;-69
2021/07/27 02:34:51;;;;;;;7.25;2.20;;;16.70;91.20;;;;;;5006245;28;20026;-68
2021/07/27 02:37:17;;;;;;;11.32;2.47;;;16.70;91.30;;;;;;5009393;28;20389;-65
2021/07/27 02:39:42;;;;;;;8.52;2.45;;;16.70;91.60;;;;;;5009991;28;20521;-69
2021/07/27 02:42:08;;;;;;;7.55;2.47;;;16.70;91.40;;;;;;5011024;28;20109;-70
2021/07/27 02:44:34;;;;;;;8.10;2.63;;;16.70;91.40;;;;;;4993590;28;20225;-65
2021/07/27 02:47:03;;;;;;;11.75;2.70;;;16.70;91.40;;;;;;4993747;28;20520;-69
2021/07/27 02:49:29;;;;;;;7.40;3.28;;;16.70;91.40;;;;;;4994777;28;20704;-69
2021/07/27 02:51:56;;;;;;;8.27;3.05;;;16.70;91.30;;;;;;5012478;28;20033;-69
2021/07/27 02:54:22;;;;;;;12.25;3.35;;;16.70;91.40;;;;;;5010926;28;20457;-69
2021/07/27 02:56:47;;;;;;;9.40;2.95;;;16.70;91.40;;;;;;5008834;28;20022;-67
2021/07/27 02:59:13;;;;;;;6.38;2.80;;;16.70;91.40;;;;;;5013199;28;20101;-69
2021/07/27 03:01:38;;;;;;;7.47;3.20;;;16.70;91.50;;;;;;5010653;28;20563;-70
2021/07/27 03:04:04;;;;;;;7.72;2.97;;;16.70;91.50;;;;;;5012341;28;20486;-69
2021/07/27 03:06:31;;;;;;;5.00;3.20;;;16.70;91.60;;;;;;5010440;28;20445;-68
2021/07/27 03:11:23;;;;;;;4.10;3.58;;;16.60;91.70;;;;;;5006719;28;20081;-70
2021/07/27 03:13:49;;;;;;;7.07;3.72;;;16.60;91.80;;;;;;5007455;28;20109;-68
2021/07/27 03:16:17;;;;;;;6.93;3.38;;;16.60;91.80;;;;;;5009567;28;20120;-69
2021/07/27 03:18:44;;;;;;;3.55;3.10;;;16.60;91.90;;;;;;5008135;28;20036;-69
2021/07/27 03:21:13;;;;;;;6.65;3.10;;;16.60;91.90;;;;;;5011457;28;20098;-69
2021/07/27 03:23:39;;;;;;;5.70;3.42;;;16.60;91.90;;;;;;4993435;28;20025;-70
2021/07/27 03:26:04;;;;;;;5.97;3.63;;;16.60;91.80;;;;;;5009543;28;20466;-67
2021/07/27 03:28:30;;;;;;;3.88;3.10;;;16.60;91.90;;;;;;5009866;28;20437;-69
2021/07/27 03:30:55;;;;;;;6.28;3.28;;;16.70;91.90;;;;;;5012146;28;20034;-69
2021/07/27 03:33:21;;;;;;;8.90;3.85;;;16.60;91.90;;;;;;5009215;28;20108;-69
2021/07/27 03:35:46;;;;;;;6.80;3.28;;;16.60;91.90;;;;;;5007958;28;20026;-66
2021/07/27 03:38:12;;;;;;;3.90;3.45;;;16.60;92.00;;;;;;5011395;28;20026;-70
2021/07/27 03:40:38;;;;;;;4.18;3.33;;;16.60;92.00;;;;;;4994243;28;20021;-70
2021/07/27 03:43:03;;;;;;;8.20;3.97;;;16.60;92.10;;;;;;4992690;28;20021;-68
2021/07/27 03:45:29;;;;;;;12.02;4.40;;;16.50;92.10;;;;;;5009574;28;20133;-69
2021/07/27 03:47:55;;;;;;;6.25;4.32;;;16.50;92.00;;;;;;5008317;28;20454;-67
2021/07/27 03:50:20;;;;;;;6.95;4.68;;;16.50;92.00;;;;;;5009434;28;20026;-70
2021/07/27 03:52:46;;;;;;;8.15;4.38;;;16.50;92.00;;;;;;5010014;28;20367;-69
2021/07/27 03:55:12;;;;;;;6.18;3.70;;;16.40;92.00;;;;;;5009785;28;20120;-69
2021/07/27 03:57:38;;;;;;;8.18;4.47;;;16.40;92.20;;;;;;4986115;28;20366;-69
2021/07/27 04:00:05;;;;;;;7.03;4.28;;;16.30;92.20;;;;;;4993753;28;20025;-69
2021/07/27 04:02:30;;;;;;;5.00;4.05;;;16.30;92.30;;;;;;5009329;28;20022;-69
2021/07/27 04:04:56;;;;;;;6.75;4.47;;;16.30;92.30;;;;;;5008389;28;20021;-68
2021/07/27 04:07:22;;;;;;;5.00;3.80;;;16.30;92.40;;;;;;5009713;28;20092;-69
2021/07/27 04:09:47;;;;;;;7.40;3.97;;;16.40;92.40;;;;;;5009988;28;20072;-69
2021/07/27 04:12:13;;;;;;;6.82;4.38;;;16.40;92.40;;;;;;5003563;28;20036;-67
2021/07/27 04:14:38;;;;;;;10.35;4.20;;;16.40;92.40;;;;;;5005537;28;20057;-67
2021/07/27 04:17:04;;;;;;;8.38;4.82;;;16.40;92.40;;;;;;5009558;28;20064;-69
2021/07/27 04:19:30;;;;;;;6.38;4.47;;;16.40;92.40;;;;;;4993562;28;20029;-70
2021/07/27 04:21:55;;;;;;;6.72;4.43;;;16.40;92.40;;;;;;5010824;28;20026;-66
2021/07/27 04:24:21;;;;;;;9.32;5.10;;;16.40;92.40;;;;;;5008315;28;20041;-69
2021/07/27 04:26:48;;;;;;;7.25;4.68;;;16.40;92.40;;;;;;5008137;28;20100;-70
2021/07/27 04:29:17;;;;;;;6.10;4.35;;;16.40;92.40;;;;;;5009315;28;20105;-69
2021/07/27 04:31:42;;;;;;;8.98;4.50;;;16.30;92.50;;;;;;5010109;28;20489;-69
2021/07/27 04:34:08;;;;;;;6.72;4.78;;;16.30;92.50;;;;;;5004457;28;20117;-69
2021/07/27 04:36:34;;;;;;;6.25;4.47;;;16.30;92.60;;;;;;4987945;28;20057;-66
2021/07/27 04:38:59;;;;;;;8.45;5.07;;;16.30;92.70;;;;;;5009308;28;20022;-70
2021/07/27 04:41:25;;;;;;;7.82;4.72;;;16.30;92.60;;;;;;4993600;28;20053;-69
2021/07/27 04:43:51;;;;;;;7.35;4.85;;;16.30;92.70;;;;;;5008053;28;20036;-69
2021/07/27 04:46:16;;;;;;;9.20;4.97;;;16.30;92.70;;;;;;4990761;28;20355;-69
2021/07/27 04:48:42;;;;;;;8.13;4.45;;;16.40;92.80;;;;;;4991694;28;20072;-67
2021/07/27 04:51:08;;;;;;;6.50;3.90;;;16.30;92.80;;;;;;4992284;28;21671;-69
2021/07/27 04:53:37;;;;;;;6.05;3.58;;;16.40;92.90;;;;;;5006437;28;20053;-69
2021/07/27 04:56:03;;;;;;;7.55;4.35;;;16.50;92.90;;;;;;4991153;28;20133;-67
2021/07/27 04:58:29;;;;;;;6.35;4.25;;;16.50;93.00;;;;;;5010811;28;20030;-70
2021/07/27 05:01:01;;;;;;;6.40;3.90;;;16.60;93.00;;;;;;4992849;28;20034;-67
2021/07/27 05:03:27;;;;;;;;;;;16.60;93.00;;;;;;4991765;28;20018;-69
2021/07/27 05:05:53;;;;;;;7.57;4.07;;;16.60;92.90;;;;;;4989817;28;19910;-69
2021/07/27 05:08:18;;;;;;;8.35;4.28;;;16.70;92.90;;;;;;5006622;28;20065;-69
2021/07/27 05:10:45;;;;;;;7.72;4.15;;;16.70;92.90;;;;;;5008465;28;20032;-69
2021/07/27 05:13:11;;;;;;;7.93;4.03;;;16.80;92.90;;;;;;5007583;28;20522;-69
2021/07/27 05:15:36;;;;;;;7.10;4.05;;;16.80;92.90;;;;;;5006117;28;20036;-69
2021/07/27 05:18:02;;;;;;;9.27;4.07;;;16.80;92.80;;;;;;4992119;28;20061;-70
2021/07/27 05:20:28;;;;;;;7.95;4.00;;;16.90;92.90;;;;;;5009057;28;20540;-70
2021/07/27 05:22:54;;;;;;;8.88;4.13;;;16.90;92.80;;;;;;4989054;28;20082;-70
2021/07/27 05:25:20;;;;;;;7.13;4.60;;;16.90;92.90;;;;;;5004610;28;20085;-69
2021/07/27 05:27:46;;;;;;;5.95;4.07;;;17.00;92.90;;;;;;5002293;28;20040;-70
2021/07/27 05:30:13;;;;;;;8.15;4.18;;;17.10;93.00;;;;;;5010193;28;20030;-69
2021/07/27 05:32:39;;;;;;;6.53;3.97;;;17.10;93.00;;;;;;5003859;28;20478;-68
2021/07/27 05:35:05;;;;;;;11.52;5.72;;;17.20;93.00;;;;;;5004031;28;20037;-70
2021/07/27 05:37:31;;;;;;;10.90;4.00;;;17.30;93.00;;;;;;5008308;28;20052;-70
2021/07/27 05:39:56;;;;;;;7.47;4.18;;;17.30;93.00;;;;;;5010325;28;20053;-69
2021/07/27 05:42:22;;;;;;;5.97;4.35;;;17.40;93.00;;;;;;5009100;28;20504;-69
2021/07/27 05:44:48;;;;;;;7.93;4.22;;;17.40;92.90;;;;;;5003413;28;20037;-68
2021/07/27 05:47:13;;;;;;;6.22;4.07;;;17.40;92.90;;;;;;5006433;28;20502;-70
2021/07/27 05:49:39;;;;;;;5.45;4.10;;;17.50;92.90;;;;;;5009005;28;20367;-69
2021/07/27 05:52:05;;;;;;;9.18;4.00;;;17.50;92.80;;;;;;5010012;28;20044;-69
2021/07/27 05:54:31;;;;;;;6.95;4.63;;;17.50;92.80;;;;;;4990803;28;20029;-69
2021/07/27 05:56:56;;;;;;;7.00;4.05;;;17.50;92.80;;;;;;5009525;28;20030;-69
2021/07/27 05:59:22;;;;;;;5.40;4.00;;;17.50;92.80;;;;;;5008477;28;20532;-67
2021/07/27 06:01:49;;;;;;;7.25;3.80;;;17.50;92.70;;;;;;5008423;28;20030;-70
2021/07/27 06:04:15;;;;;;;6.13;4.35;;;17.60;92.70;;;;;;5007378;28;20498;-69
2021/07/27 06:06:41;;;;;;;5.80;4.20;;;17.60;92.80;;;;;;4999757;28;20025;-69
2021/07/27 06:09:08;;;;;;;38.38;24.40;;;17.60;92.80;;;;;;4990711;28;20397;-70
2021/07/27 06:11:35;;;;;;;8.10;4.57;;;17.60;92.80;;;;;;5005446;28;20068;-70
2021/07/27 06:14:02;;;;;;;8.27;4.00;;;17.60;92.80;;;;;;5008484;28;20053;-70
2021/07/27 06:16:28;;;;;;;6.25;4.07;;;17.70;92.80;;;;;;5008762;28;20081;-70
2021/07/27 06:18:53;;;;;;;12.25;4.38;;;17.70;92.80;;;;;;5007664;28;20018;-70
2021/07/27 06:21:19;;;;;;;4.50;3.92;;;17.80;92.80;;;;;;5013768;28;20482;-69
2021/07/27 06:23:46;;;;;;;7.22;4.00;;;17.80;92.80;;;;;;5013506;28;20030;-66
2021/07/27 06:26:12;;;;;;;6.82;3.95;;;17.90;92.80;;;;;;5012353;28;20026;-69
2021/07/27 06:28:38;;;;;;;5.15;3.65;;;17.90;92.80;;;;;;5013820;28;20057;-69
2021/07/27 06:31:13;;;;;;;4.88;4.05;;;17.90;92.70;;;;;;4991477;28;20022;-69
2021/07/27 06:33:42;;;;;;;7.10;4.13;;;18.00;92.70;;;;;;4995016;28;20547;-70
2021/07/27 06:36:08;;;;;;;5.75;4.13;;;18.10;92.70;;;;;;5011125;28;20032;-69
2021/07/27 06:38:35;;;;;;;4.95;3.80;;;18.10;92.60;;;;;;5011848;28;20556;-69
2021/07/27 06:41:04;;;;;;;6.72;3.70;;;18.20;92.60;;;;;;4996255;28;20431;-70
2021/07/27 06:43:29;;;;;;;10.95;4.07;;;18.20;92.70;;;;;;5013973;28;20387;-67
2021/07/27 06:45:55;;;;;;;5.07;3.67;;;18.30;92.50;;;;;;5010819;28;20026;-69
2021/07/27 06:48:22;;;;;;;6.28;3.95;;;18.30;92.50;;;;;;4995195;28;20026;-71
2021/07/27 06:50:48;;;;;;;4.43;3.60;;;18.40;92.50;;;;;;4995763;28;20034;-71
2021/07/27 06:53:14;;;;;;;4.95;3.85;;;18.50;92.40;;;;;;5013513;28;20033;-71
2021/07/27 06:55:39;;;;;;;5.43;3.67;;;18.60;92.30;;;;;;5009845;28;20034;-68
2021/07/27 06:58:05;;;;;;;4.82;3.95;;;18.60;92.40;;;;;;4995201;28;20532;-71
2021/07/27 07:00:31;;;;;;;8.05;4.03;;;18.50;92.60;;;;;;4995010;28;20120;-71
2021/07/27 07:02:56;;;;;;;6.13;4.07;;;18.40;92.90;;;;;;5012886;28;20033;-70
2021/07/27 07:05:22;;;;;;;8.45;5.43;;;18.30;93.40;;;;;;5011962;28;20030;-68
2021/07/27 07:07:47;;;;;;;6.38;4.22;;;18.30;93.70;;;;;;5007598;28;20033;-70
2021/07/27 07:10:13;;;;;;;7.00;4.13;;;18.40;94.00;;;;;;5010884;28;20026;-69
2021/07/27 07:12:38;;;;;;;5.15;4.20;;;18.50;94.00;;;;;;5013233;28;20100;-70
2021/07/27 07:15:05;;;;;;;5.45;4.28;;;18.50;94.00;;;;;;4993733;28;20030;-68
2021/07/27 07:17:31;;;;;;;7.07;3.92;;;18.50;93.90;;;;;;5012763;28;20026;-68
2021/07/27 07:19:56;;;;;;;9.02;4.32;;;18.60;93.70;;;;;;5013154;28;20018;-67
2021/07/27 07:22:23;;;;;;;7.80;4.28;;;18.50;93.90;;;;;;5008421;28;20045;-70
2021/07/27 07:24:48;;;;;;;5.18;4.40;;;18.60;94.00;;;;;;5011032;28;20030;-70
2021/07/27 07:27:14;;;;;;;9.38;4.63;;;18.70;94.10;;;;;;4994183;28;20805;-69
2021/07/27 07:29:40;;;;;;;4.22;3.83;;;19.00;94.20;;;;;;5010416;28;20041;-70
2021/07/27 07:32:06;;;;;;;7.75;4.28;;;19.30;94.20;;;;;;5019892;28;20439;-70
2021/07/27 07:34:32;;;;;;;4.57;4.18;;;19.40;94.20;;;;;;4993621;28;20113;-72
2021/07/27 07:36:58;;;;;;;6.97;4.10;;;19.40;94.00;;;;;;5042860;23;20054;-71
2021/07/27 07:39:24;;;;;;;6.68;4.35;;;19.50;93.90;;;;;;4954607;28;20033;-70
2021/07/27 07:41:49;;;;;;;6.85;3.85;;;19.50;93.90;;;;;;4959579;28;20114;-69
2021/07/27 07:44:15;;;;;;;4.38;3.78;;;19.80;93.90;;;;;;4953683;28;20384;-70
2021/07/27 07:46:41;;;;;;;6.75;4.32;;;19.90;94.00;;;;;;4952108;29;20094;-68
2021/07/27 07:49:06;;;;;;;10.73;4.40;;;20.00;93.90;;;;;;4954012;29;20443;-73
2021/07/27 07:51:33;;;;;;;6.40;4.05;;;20.00;93.80;;;;;;4952966;28;20031;-71
2021/07/27 07:54:00;;;;;;;4.80;3.83;;;20.30;93.70;;;;;;4953209;29;20463;-73
2021/07/27 07:56:26;;;;;;;6.05;3.90;;;20.50;93.70;;;;;;4950990;29;20039;-71
2021/07/27 07:58:52;;;;;;;5.45;4.30;;;20.80;93.60;;;;;;4952022;29;20031;-70
2021/07/27 08:01:17;;;;;;;5.82;3.90;;;21.10;93.20;;;;;;4952222;29;20090;-71
2021/07/27 08:03:43;;;;;;;8.18;6.20;;;21.60;93.00;;;;;;4953710;28;20031;-70
2021/07/27 08:06:09;;;;;;;4.93;4.22;;;22.00;92.90;;;;;;4952313;28;20027;-70
2021/07/27 08:08:36;;;;;;;7.95;4.63;;;21.80;92.60;;;;;;4952298;28;20027;-70
2021/07/27 08:11:03;;;;;;;5.03;4.13;;;21.70;92.50;;;;;;4952361;28;20455;-71
2021/07/27 08:13:29;;;;;;;4.95;3.75;;;21.60;92.30;;;;;;4960555;28;20376;-71
2021/07/27 08:15:54;;;;;;;5.63;3.92;;;21.80;92.20;;;;;;4952612;29;20499;-71
2021/07/27 08:18:20;;;;;;;5.78;3.70;;;22.40;92.10;;;;;;4953814;28;20031;-71
2021/07/27 08:20:46;;;;;;;5.38;4.07;;;22.70;91.70;;;;;;4951632;28;20035;-71
2021/07/27 08:23:12;;;;;;;4.25;3.85;;;22.90;91.70;;;;;;4960510;28;20043;-71
2021/07/27 08:25:37;;;;;;;7.78;3.90;;;22.90;91.60;;;;;;4950118;28;20039;-71
2021/07/27 08:28:03;;;;;;;6.78;3.38;;;23.20;91.30;;;;;;4951022;28;20057;-71
2021/07/27 08:30:29;;;;;;;3.85;3.28;;;23.50;90.90;;;;;;4951841;29;20622;-71
2021/07/27 08:32:55;;;;;;;4.90;3.40;;;24.00;90.60;;;;;;4953706;28;20027;-71
2021/07/27 08:35:22;;;;;;;6.15;3.28;;;24.40;90.20;;;;;;4952519;29;20106;-72
2021/07/27 08:37:49;;;;;;;4.30;3.35;;;24.90;89.20;;;;;;4955139;28;20365;-71
2021/07/27 08:40:17;;;;;;;7.40;3.60;;;25.00;88.80;;;;;;4955461;28;20435;-71
2021/07/27 08:42:43;;;;;;;6.00;3.67;;;25.10;88.30;;;;;;4956114;28;20016;-71
2021/07/27 08:45:09;;;;;;;4.68;3.58;;;24.90;87.20;;;;;;4951760;28;20086;-72
2021/07/27 08:47:35;;;;;;;4.70;3.30;;;24.30;88.00;;;;;;4945237;29;20074;-71
2021/07/27 08:50:03;;;;;;;4.03;3.50;;;24.40;88.20;;;;;;4952935;28;20059;-72
2021/07/27 08:52:29;;;;;;;5.72;4.50;;;24.80;87.00;;;;;;4953295;28;20031;-72
2021/07/27 08:54:54;;;;;;;3.97;3.58;;;25.00;85.40;;;;;;4950923;28;20377;-72
2021/07/27 08:57:20;;;;;;;5.72;3.58;;;25.00;85.10;;;;;;4951629;29;20093;-72
2021/07/27 08:59:46;;;;;;;4.25;3.70;;;25.20;84.20;;;;;;4948112;29;20028;-72
2021/07/27 09:02:12;;;;;;;5.10;3.47;;;25.30;83.10;;;;;;4951451;28;20115;-72
2021/07/27 09:04:37;;;;;;;4.80;3.47;;;25.30;82.50;;;;;;4951474;28;20126;-71
2021/07/27 09:07:04;;;;;;;4.55;3.88;;;25.50;82.00;;;;;;4952642;28;20027;-71
2021/07/27 09:09:33;;;;;;;5.78;3.65;;;25.90;80.50;;;;;;4952859;28;20070;-71
2021/07/27 09:12:00;;;;;;;6.35;3.70;;;26.10;79.70;;;;;;4942589;28;20416;-72
2021/07/27 09:14:26;;;;;;;6.20;3.55;;;26.00;79.60;;;;;;4952013;28;20027;-71
2021/07/27 09:16:57;;;;;;;4.63;3.40;;;26.10;79.20;;;;;;4945280;29;20038;-70
2021/07/27 09:19:23;;;;;;;7.20;4.90;;;26.00;78.40;;;;;;4951712;28;20742;-69
2021/07/27 09:21:49;;;;;;;4.43;3.35;;;26.30;78.70;;;;;;4951212;29;20055;-69
2021/07/27 09:24:21;;;;;;;5.90;4.10;;;26.80;77.20;;;;;;4952440;28;20538;-69
2021/07/27 09:27:08;;;;;;;3.50;3.20;;;27.20;75.00;;;;;;4951975;28;20484;-69
2021/07/27 09:29:44;;;;;;;3.80;3.40;;;27.30;74.40;;;;;;4953223;28;20035;-69
2021/07/27 09:32:19;;;;;;;3.78;3.38;;;27.70;73.90;;;;;;4953010;29;20081;-69
2021/07/27 09:34:45;;;;;;;3.78;3.35;;;28.00;72.90;;;;;;4951929;28;20027;-69
2021/07/27 09:37:11;;;;;;;4.18;3.08;;;28.10;72.00;;;;;;4952340;28;20489;-69
2021/07/27 09:39:37;;;;;;;4.35;3.05;;;28.50;70.90;;;;;;4952895;28;20146;-69
2021/07/27 09:42:05;;;;;;;3.75;3.03;;;29.30;69.50;;;;;;4952960;29;20038;-69
2021/07/27 09:44:32;;;;;;;5.13;3.25;;;29.40;68.70;;;;;;4952572;29;20027;-69
2021/07/27 09:47:00;;;;;;;5.50;3.30;;;29.20;68.90;;;;;;4952278;29;20128;-69
2021/07/27 09:49:26;;;;;;;3.55;3.20;;;29.00;68.70;;;;;;4952938;28;20113;-69
2021/07/27 09:51:52;;;;;;;3.45;3.15;;;28.50;69.10;;;;;;4952751;29;20027;-69
2021/07/27 09:54:23;;;;;;;3.22;2.92;;;27.90;69.00;;;;;;4953489;28;20035;-69
2021/07/27 09:56:55;;;;;;;3.60;3.30;;;27.50;70.50;;;;;;4954979;29;20039;-69
2021/07/27 09:59:24;;;;;;;4.15;3.50;;;27.10;70.40;;;;;;4953151;28;20031;-69
2021/07/27 10:02:05;;;;;;;3.92;3.38;;;26.90;70.40;;;;;;4955739;29;20023;-69
2021/07/27 10:04:37;;;;;;;4.38;3.38;;;26.80;70.40;;;;;;4956144;28;20036;-69
2021/07/27 10:07:04;;;;;;;3.50;3.20;;;26.70;70.50;;;;;;4956207;28;20102;-69
2021/07/27 10:09:32;;;;;;;5.35;3.13;;;26.70;71.40;;;;;;4956300;28;20030;-69
2021/07/27 10:12:09;;;;;;;4.13;3.55;;;27.00;70.50;;;;;;4956380;28;20119;-69
2021/07/27 10:14:44;;;;;;;4.35;3.22;;;27.20;69.40;;;;;;4954210;29;20026;-69
2021/07/27 10:17:10;;;;;;;4.03;3.35;;;27.00;70.20;;;;;;4955596;28;20028;-69
2021/07/27 10:19:56;;;;;;;3.95;3.45;;;26.90;70.80;;;;;;4956209;29;20369;-69
2021/07/27 10:22:31;;;;;;;3.17;2.90;;;26.90;71.10;;;;;;4956201;29;20020;-69
2021/07/27 10:24:57;;;;;;;3.45;3.10;;;27.10;70.80;;;;;;4955437;29;20031;-69
2021/07/27 10:27:26;;;;;;;3.85;3.55;;;27.30;71.50;;;;;;4953678;29;20054;-69
2021/07/27 10:29:52;;;;;;;6.55;3.53;;;27.30;68.70;;;;;;4956198;29;20023;-69
2021/07/27 10:32:20;;;;;;;3.75;3.30;;;27.00;68.60;;;;;;4955959;28;20041;-69
2021/07/27 10:34:46;;;;;;;3.50;3.20;;;26.80;68.40;;;;;;4955012;28;20056;-69
2021/07/27 10:37:14;;;;;;;4.50;3.47;;;26.70;68.20;;;;;;4954543;28;20110;-69
2021/07/27 10:39:51;;;;;;;5.00;3.70;;;26.70;67.50;;;;;;4955845;28;20375;-69
2021/07/27 10:42:18;;;;;;;3.78;3.28;;;26.80;67.70;;;;;;4955971;29;20447;-69
2021/07/27 10:44:44;;;;;;;4.53;3.58;;;26.80;67.80;;;;;;4955060;29;20031;-69
2021/07/27 10:47:21;;;;;;;12.82;4.43;;;26.50;67.60;;;;;;4955772;29;20118;-69
2021/07/27 10:49:58;;;;;;;4.40;3.20;;;26.30;68.50;;;;;;4955736;28;20034;-69
2021/07/27 10:52:25;;;;;;;4.80;3.20;;;26.40;70.30;;;;;;4955677;29;20037;-69
2021/07/27 10:54:56;;;;;;;16.40;3.70;;;26.40;69.60;;;;;;4954684;29;20038;-69
2021/07/27 10:57:27;;;;;;;3.90;3.50;;;26.50;69.70;;;;;;4954937;29;20534;-69
2021/07/27 10:59:53;;;;;;;4.10;3.70;;;26.50;68.50;;;;;;4950369;28;20027;-69
2021/07/27 11:02:23;;;;;;;4.03;3.67;;;26.50;69.00;;;;;;4951449;29;20278;-69
2021/07/27 11:04:48;;;;;;;3.88;3.38;;;26.40;67.20;;;;;;4954623;28;20026;-69
2021/07/27 11:07:18;;;;;;;4.60;3.50;;;26.20;67.90;;;;;;4953318;28;20023;-69
2021/07/27 11:09:54;;;;;;;7.22;3.80;;;25.90;68.30;;;;;;4955350;28;20035;-69
2021/07/27 11:12:34;;;;;;;4.00;3.60;;;25.70;68.10;;;;;;4947049;28;20031;-69
2021/07/27 11:15:03;;;;;;;6.72;4.00;;;25.60;68.80;;;;;;4953934;28;20059;-69
2021/07/27 11:17:29;;;;;;;4.80;3.22;;;25.60;68.90;;;;;;4955012;28;20019;-69
2021/07/27 11:19:55;;;;;;;4.50;3.50;;;25.60;68.70;;;;;;4955282;29;20019;-69
2021/07/27 11:22:21;;;;;;;5.10;3.50;;;25.60;68.20;;;;;;4955254;29;20365;-69
2021/07/27 11:24:47;;;;;;;4.93;3.58;;;25.60;68.80;;;;;;4954344;29;20031;-70
2021/07/27 11:27:13;;;;;;;7.07;4.00;;;25.60;68.60;;;;;;4953886;29;20502;-70
2021/07/27 11:29:39;;;;;;;6.63;4.15;;;25.60;68.60;;;;;;4955203;29;20507;-70
2021/07/27 11:32:13;;;;;;;3.47;3.17;;;25.50;68.30;;;;;;4955042;29;20066;-70
2021/07/27 11:34:38;;;;;;;6.03;3.60;;;25.50;68.60;;;;;;4953678;29;20439;-70
2021/07/27 11:37:04;;;;;;;3.45;3.15;;;25.50;68.60;;;;;;4955612;28;20035;-70
2021/07/27 11:39:39;;;;;;;4.13;3.22;;;25.50;68.20;;;;;;4954897;28;20484;-70
2021/07/27 11:42:05;;;;;;;3.97;3.08;;;25.60;68.30;;;;;;4954983;29;20026;-68
2021/07/27 11:44:30;;;;;;;3.60;3.17;;;25.70;67.60;;;;;;4954267;28;20085;-68
2021/07/27 11:46:57;;;;;;;4.07;3.13;;;25.80;67.00;;;;;;4951198;29;20032;-68
2021/07/27 11:49:23;;;;;;;4.80;2.92;;;25.80;66.70;;;;;;4952477;28;20027;-68
2021/07/27 11:52:00;;;;;;;3.50;3.10;;;25.80;66.40;;;;;;4954533;29;20451;-68
2021/07/27 11:54:25;;;;;;;3.22;2.90;;;26.00;64.90;;;;;;4954366;28;20035;-69
2021/07/27 11:56:51;;;;;;;3.78;2.97;;;26.00;64.90;;;;;;4953585;28;20077;-69
2021/07/27 11:59:28;;;;;;;4.45;3.30;;;26.00;65.00;;;;;;4954552;28;20053;-69
2021/07/27 12:01:54;;;;;;;3.47;3.13;;;25.90;64.40;;;;;;4954320;28;20468;-69
2021/07/27 12:04:20;;;;;;;4.28;3.10;;;25.80;65.00;;;;;;4954197;28;20030;-69
2021/07/27 12:06:54;;;;;;;3.17;2.90;;;25.80;65.20;;;;;;4952749;28;20023;-69
2021/07/27 12:09:22;;;;;;;3.30;3.00;;;25.80;65.20;;;;;;4954341;29;20034;-69
2021/07/27 12:11:48;;;;;;;3.67;3.35;;;25.70;64.70;;;;;;4953731;28;20027;-69
2021/07/27 12:14:13;;;;;;;7.70;3.10;;;25.60;64.50;;;;;;4953865;28;20034;-69
2021/07/27 12:16:39;;;;;;;3.10;2.80;;;25.50;64.80;;;;;;4951561;28;20023;-69
2021/07/27 12:19:05;;;;;;;3.30;3.00;;;25.50;64.50;;;;;;4949431;28;20519;-69
2021/07/27 12:21:30;;;;;;;5.07;2.80;;;25.40;64.40;;;;;;4953872;29;20468;-69
2021/07/27 12:23:56;;;;;;;3.40;3.10;;;25.40;64.80;;;;;;4954170;29;20391;-69
2021/07/27 12:26:21;;;;;;;4.20;3.20;;;25.30;64.30;;;;;;4952157;29;20027;-69
2021/07/27 12:28:47;;;;;;;5.55;2.80;;;25.30;64.80;;;;;;4953736;28;20027;-69
2021/07/27 12:31:13;;;;;;;3.47;3.10;;;25.20;65.20;;;;;;4953628;29;20102;-69
2021/07/27 12:33:39;;;;;;;3.95;3.40;;;25.20;64.90;;;;;;4953738;28;20346;-69
2021/07/27 12:36:05;;;;;;;3.40;3.00;;;25.20;64.80;;;;;;4952485;29;20030;-69
2021/07/27 12:38:33;;;;;;;3.97;2.97;;;25.20;65.10;;;;;;4953029;29;20027;-69
2021/07/27 12:40:58;;;;;;;4.70;3.45;;;25.10;65.00;;;;;;4953654;28;20051;-69
2021/07/27 12:43:25;;;;;;;4.07;3.40;;;25.10;65.10;;;;;;4953425;28;20031;-69
2021/07/27 12:45:50;;;;;;;3.58;3.20;;;25.10;65.60;;;;;;4950166;28;20058;-69
2021/07/27 12:48:16;;;;;;;4.93;3.10;;;25.00;65.40;;;;;;4952780;28;20058;-69
2021/07/27 12:50:42;;;;;;;6.22;3.70;;;25.00;65.90;;;;;;4952968;28;20031;-69
2021/07/27 12:53:07;;;;;;;3.55;3.03;;;24.90;65.80;;;;;;4953431;28;20089;-69
2021/07/27 12:55:34;;;;;;;3.92;2.85;;;25.00;65.60;;;;;;4952495;28;20027;-69
2021/07/27 12:58:03;;;;;;;3.45;3.15;;;25.00;65.30;;;;;;4953318;28;20050;-69
2021/07/27 13:00:30;;;;;;;4.70;3.53;;;25.10;65.30;;;;;;4953352;28;20055;-69
2021/07/27 13:02:56;;;;;;;3.95;3.00;;;25.10;65.80;;;;;;4953271;28;20027;-69
2021/07/27 13:05:22;;;;;;;3.50;3.00;;;25.20;65.80;;;;;;4951938;28;20023;-69
2021/07/27 13:07:48;;;;;;;6.35;3.45;;;25.10;65.30;;;;;;4953247;28;20476;-69
2021/07/27 13:10:13;;;;;;;3.53;3.00;;;25.10;65.40;;;;;;4953339;28;20031;-69